Time;durP1;ratioP1;P1;durP2;ratioP2;P2;SDS_P1;SDS_P2;PMS_P1;PMS_P2;Temp;Humidity;BMP_temperature;BMP_pressure;BME280_temperature;BME280_humidity;BME280_pressure;Samples;Min_cycle;Max_cycle;Signal;HPM_P1;HPM_P2
2022/07/05 00:00:53;;;;;;;2.00;1.90;;;;;;;22.79;44.08;95162.69;5010178;28;20204;-68
2022/07/05 00:03:20;;;;;;;9.02;2.10;;;;;;;22.72;44.11;95154.59;5011020;28;20214;-68
2022/07/05 00:05:47;;;;;;;2.50;2.30;;;;;;;22.68;43.86;95153.19;5010304;28;20227;-67
2022/07/05 00:08:14;;;;;;;3.80;1.65;;;;;;;22.71;43.93;95151.16;5010237;28;20253;-68
2022/07/05 00:10:41;;;;;;;3.92;2.38;;;;;;;22.75;43.84;95154.34;5010526;28;20203;-67
2022/07/05 00:13:07;;;;;;;2.85;2.22;;;;;;;22.82;43.44;95152.91;5010591;28;20199;-67
2022/07/05 00:15:36;;;;;;;4.35;2.25;;;;;;;22.80;43.99;95154.81;5010670;28;20250;-67
2022/07/05 00:18:03;;;;;;;3.63;2.03;;;;;;;22.63;43.91;95156.13;5008558;28;20208;-67
2022/07/05 00:20:30;;;;;;;3.30;2.30;;;;;;;22.59;44.30;95159.91;5010740;28;20224;-66
2022/07/05 00:22:56;;;;;;;3.60;2.45;;;;;;;22.57;44.06;95161.78;5011347;28;20258;-67
2022/07/05 00:25:23;;;;;;;1.92;1.83;;;;;;;22.70;44.01;95156.47;5011308;28;20204;-66
2022/07/05 00:27:50;;;;;;;2.95;2.00;;;;;;;22.56;44.10;95154.13;5009929;28;20253;-68
2022/07/05 00:30:17;;;;;;;2.47;2.00;;;;;;;22.51;44.22;95151.13;5009611;28;20301;-67
2022/07/05 00:32:45;;;;;;;2.53;2.13;;;;;;;22.74;44.03;95144.91;5010128;28;20270;-67
2022/07/05 00:35:11;;;;;;;7.30;2.30;;;;;;;22.57;44.06;95145.41;5010350;28;20203;-67
2022/07/05 00:37:38;;;;;;;2.17;2.08;;;;;;;22.40;44.51;95160.53;5010362;28;20207;-67
2022/07/05 00:40:07;;;;;;;3.67;2.10;;;;;;;22.52;44.74;95142.41;5008898;28;20716;-66
2022/07/05 00:42:34;;;;;;;3.30;2.33;;;;;;;22.65;44.65;95149.06;5008613;28;20673;-68
2022/07/05 00:45:03;;;;;;;2.22;2.08;;;;;;;22.57;44.26;95145.41;5010428;28;20261;-67
2022/07/05 00:47:30;;;;;;;5.30;3.70;;;;;;;22.63;43.99;95139.75;5009643;28;20270;-67
2022/07/05 00:49:58;;;;;;;2.20;2.10;;;;;;;22.54;44.36;95137.91;5009706;28;20200;-66
2022/07/05 00:52:25;;;;;;;4.18;2.20;;;;;;;22.36;44.93;95143.59;5009404;28;20281;-67
2022/07/05 00:54:52;;;;;;;2.15;2.05;;;;;;;22.10;45.45;95144.81;5009544;28;20317;-68
2022/07/05 00:57:21;;;;;;;2.88;2.60;;;;;;;21.96;46.30;95151.03;5010296;28;20196;-67
2022/07/05 00:59:47;;;;;;;2.25;2.15;;;;;;;21.97;46.11;95146.66;5008696;28;20652;-68
2022/07/05 01:02:14;;;;;;;4.03;2.72;;;;;;;22.12;46.07;95153.28;5008724;28;20650;-68
2022/07/05 01:04:41;;;;;;;2.25;2.08;;;;;;;22.27;45.91;95148.69;5009700;28;20285;-67
2022/07/05 01:07:09;;;;;;;6.82;2.78;;;;;;;22.33;45.85;95159.38;5010152;28;20207;-66
2022/07/05 01:09:36;;;;;;;3.75;2.10;;;;;;;22.31;46.06;95156.06;5008420;28;20627;-66
2022/07/05 01:12:03;;;;;;;6.30;2.15;;;;;;;22.04;45.94;95148.69;5008839;28;20207;-67
2022/07/05 01:14:30;;;;;;;2.78;2.60;;;;;;;21.94;46.93;95154.66;5008998;28;20207;-67
2022/07/05 01:16:57;;;;;;;2.42;2.30;;;;;;;22.14;46.14;95153.97;5009398;28;20741;-68
2022/07/05 01:19:23;;;;;;;2.58;2.17;;;;;;;22.20;46.36;95163.03;5008982;28;20610;-68
2022/07/05 01:21:51;;;;;;;2.13;2.03;;;;;;;22.26;46.58;95160.81;5009986;28;20200;-68
2022/07/05 01:24:20;;;;;;;2.15;2.05;;;;;;;22.35;46.31;95167.84;5008201;28;20207;-68
2022/07/05 01:26:52;;;;;;;3.25;2.13;;;;;;;22.39;46.27;95164.06;5009260;28;20215;-68
2022/07/05 01:29:19;;;;;;;2.20;2.03;;;;;;;22.43;46.07;95162.06;5008913;28;20216;-67
2022/07/05 01:31:46;;;;;;;2.75;1.95;;;;;;;22.44;45.62;95176.66;5009247;28;20776;-67
2022/07/05 01:34:13;;;;;;;6.97;2.30;;;;;;;22.29;46.30;95160.53;5009428;28;20810;-67
2022/07/05 01:36:40;;;;;;;2.50;1.85;;;;;;;22.25;45.66;95155.75;5009736;28;20207;-68
2022/07/05 01:39:08;;;;;;;2.90;2.50;;;;;;;22.29;46.26;95163.13;5008862;28;20282;-67
2022/07/05 01:41:37;;;;;;;2.63;2.42;;;;;;;22.40;45.93;95157.94;5008983;28;20214;-67
2022/07/05 01:44:05;;;;;;;3.13;2.00;;;;;;;22.23;46.09;95145.50;5008017;28;20587;-67
2022/07/05 01:46:36;;;;;;;3.03;2.13;;;;;;;22.04;46.36;95147.84;5008858;28;20208;-67
2022/07/05 01:49:06;;;;;;;2.50;2.05;;;;;;;21.81;47.82;95156.53;5008553;28;20266;-67
2022/07/05 01:51:38;;;;;;;5.68;2.03;;;;;;;22.05;47.30;95150.34;5008983;28;20211;-68
2022/07/05 01:54:06;;;;;;;3.25;1.90;;;;;;;21.98;47.76;95153.50;5008642;28;20235;-67
2022/07/05 01:56:33;;;;;;;4.82;2.53;;;;;;;22.06;49.49;95151.16;5008853;28;20666;-67
2022/07/05 01:59:01;;;;;;;2.60;2.40;;;;;;;22.09;50.33;95150.91;5008025;28;20215;-69
2022/07/05 02:01:36;;;;;;;3.15;2.95;;;;;;;21.97;48.64;95155.25;5008312;28;20227;-67
2022/07/05 02:04:04;;;;;;;4.82;2.40;;;;;;;21.85;47.62;95152.78;5007685;28;20297;-67
2022/07/05 02:06:32;;;;;;;2.33;2.10;;;;;;;21.75;47.75;95144.09;5007073;28;20204;-67
2022/07/05 02:08:59;;;;;;;3.15;2.20;;;;;;;21.87;47.31;95145.72;5008098;28;20685;-68
2022/07/05 02:11:25;;;;;;;1.95;1.85;;;;;;;22.03;47.43;95143.63;5008384;28;20591;-67
2022/07/05 02:13:52;;;;;;;2.50;2.30;;;;;;;22.02;47.23;95149.78;5008741;28;20219;-67
2022/07/05 02:16:23;;;;;;;3.08;2.75;;;;;;;22.11;48.73;95151.63;5008822;28;20207;-67
2022/07/05 02:18:50;;;;;;;3.83;3.00;;;;;;;22.48;48.54;95156.53;5008107;28;20643;-68
2022/07/05 02:21:17;;;;;;;1.73;1.60;;;;;;;22.93;47.53;95147.69;5010058;28;20212;-67
2022/07/05 02:23:44;;;;;;;2.10;2.00;;;;;;;23.21;45.07;95161.84;5012417;28;20262;-68
2022/07/05 02:26:11;;;;;;;2.15;2.05;;;;;;;22.33;46.46;95159.38;5013168;28;20207;-68
2022/07/05 02:28:38;;;;;;;8.82;2.20;;;;;;;22.19;46.19;95164.81;5012555;28;20632;-68
2022/07/05 02:31:04;;;;;;;2.83;2.72;;;;;;;22.55;48.18;95161.09;5011887;28;20196;-67
2022/07/05 02:33:32;;;;;;;2.72;2.55;;;;;;;23.02;47.86;95167.66;5012651;28;20309;-67
2022/07/05 02:36:06;;;;;;;2.88;2.67;;;;;;;23.44;47.43;95172.09;5012312;28;20219;-67
2022/07/05 02:38:33;;;;;;;5.78;3.95;;;;;;;23.77;46.87;95168.47;5012249;28;20269;-67
2022/07/05 02:41:00;;;;;;;6.05;3.70;;;;;;;23.80;48.04;95163.84;5012034;28;20309;-67
2022/07/05 02:43:27;;;;;;;3.30;3.10;;;;;;;23.97;48.00;95172.84;5012241;28;20332;-66
2022/07/05 02:45:53;;;;;;;6.22;3.60;;;;;;;24.06;48.40;95185.00;5012446;28;20211;-66
2022/07/05 02:48:20;;;;;;;4.75;3.53;;;;;;;24.21;48.02;95172.50;5010720;28;20211;-67
2022/07/05 02:50:49;;;;;;;21.70;4.03;;;;;;;24.25;48.28;95169.53;5011351;28;20755;-67
2022/07/05 02:53:16;;;;;;;5.63;4.07;;;;;;;24.18;48.23;95168.41;5011029;28;21701;-67
2022/07/05 02:55:43;;;;;;;5.28;3.75;;;;;;;24.21;48.68;95185.50;5011751;28;20271;-66
2022/07/05 02:58:09;;;;;;;4.97;3.50;;;;;;;24.28;48.81;95190.03;5012528;28;20249;-66
2022/07/05 03:00:36;;;;;;;5.55;3.35;;;;;;;24.24;48.34;95177.44;5011598;28;20232;-67
2022/07/05 03:03:03;;;;;;;5.60;3.78;;;;;;;24.19;49.03;95183.03;5012041;28;20215;-67
2022/07/05 03:05:30;;;;;;;7.15;3.70;;;;;;;24.16;49.59;95187.66;5011773;28;20228;-67
2022/07/05 03:07:58;;;;;;;4.53;3.58;;;;;;;24.01;49.87;95192.34;5012127;28;20203;-68
2022/07/05 03:10:26;;;;;;;3.95;3.60;;;;;;;24.06;49.80;95183.25;5011354;28;20208;-67
2022/07/05 03:12:52;;;;;;;3.45;3.15;;;;;;;24.20;49.49;95187.28;5011953;28;20302;-66
2022/07/05 03:15:19;;;;;;;6.25;3.50;;;;;;;24.15;49.39;95183.41;5011176;28;20677;-67
2022/07/05 03:17:46;;;;;;;3.70;3.38;;;;;;;24.14;49.18;95182.59;5011502;28;20211;-67
2022/07/05 03:20:13;;;;;;;5.40;3.65;;;;;;;24.27;49.18;95188.41;5011189;28;20227;-67
2022/07/05 03:22:40;;;;;;;4.35;3.63;;;;;;;24.31;49.32;95181.16;5011710;28;20215;-67
2022/07/05 03:25:09;;;;;;;5.15;4.00;;;;;;;24.46;48.57;95182.47;5011319;28;20316;-67
2022/07/05 03:27:36;;;;;;;8.02;3.75;;;;;;;24.56;48.44;95182.47;5011277;28;20740;-67
2022/07/05 03:30:03;;;;;;;5.47;3.92;;;;;;;24.51;48.70;95180.28;5010985;28;20236;-67
2022/07/05 03:32:29;;;;;;;3.70;3.50;;;;;;;24.59;48.43;95175.25;5010269;28;20689;-67
2022/07/05 03:34:56;;;;;;;4.28;3.97;;;;;;;25.17;47.67;95177.13;5011151;28;20277;-67
2022/07/05 03:37:23;;;;;;;6.05;3.92;;;;;;;25.96;46.43;95175.09;5011566;28;20208;-68
2022/07/05 03:39:50;;;;;;;4.53;4.13;;;;;;;27.01;43.82;95180.75;5010939;28;20250;-68
2022/07/05 03:42:18;;;;;;;8.02;4.78;;;;;;;28.13;41.02;95176.56;5010851;28;20745;-68
2022/07/05 03:44:45;;;;;;;8.30;3.78;;;;;;;28.95;39.16;95164.66;5011194;28;20273;-67
2022/07/05 03:47:11;;;;;;;4.13;3.83;;;;;;;29.62;38.24;95163.56;5011351;28;20212;-69
2022/07/05 03:49:38;;;;;;;4.65;4.22;;;;;;;30.33;36.52;95170.63;5010889;28;20661;-69
2022/07/05 03:52:05;;;;;;;5.47;4.00;;;;;;;30.84;35.66;95160.56;5011265;28;20883;-67
2022/07/05 03:54:32;;;;;;;4.65;4.20;;;;;;;31.25;35.02;95163.75;5010466;28;20309;-68
2022/07/05 03:56:58;;;;;;;5.15;4.55;;;;;;;31.69;34.26;95163.09;5011405;28;20269;-67
2022/07/05 03:59:26;;;;;;;6.60;4.60;;;;;;;32.13;33.69;95155.25;5010655;28;20211;-68
2022/07/05 04:01:53;;;;;;;16.58;13.00;;;;;;;32.66;32.92;95169.13;5010937;28;20585;-68
2022/07/05 04:04:20;;;;;;;13.07;11.68;;;;;;;33.18;31.53;95162.81;5010306;28;20270;-67
2022/07/05 04:06:47;;;;;;;6.43;5.88;;;;;;;33.54;31.24;95160.94;5010769;28;20273;-69
2022/07/05 04:09:13;;;;;;;4.82;4.38;;;;;;;33.83;30.48;95165.28;5010349;28;20203;-68
2022/07/05 04:11:40;;;;;;;5.85;4.45;;;;;;;33.89;30.43;95164.50;5010410;28;20219;-68
2022/07/05 04:14:09;;;;;;;4.65;4.25;;;;;;;33.66;30.34;95156.78;5011915;28;20216;-68
2022/07/05 04:16:37;;;;;;;5.03;4.00;;;;;;;32.75;31.83;95162.78;5010006;28;21013;-68
2022/07/05 04:19:04;;;;;;;5.78;3.85;;;;;;;31.52;33.82;95164.19;5010636;28;20207;-69
2022/07/05 04:21:30;;;;;;;4.45;4.05;;;;;;;30.88;35.13;95163.66;5010103;28;20810;-68
2022/07/05 04:23:57;;;;;;;8.73;4.43;;;;;;;30.25;35.74;95154.91;5010316;28;20258;-68
2022/07/05 04:26:24;;;;;;;5.32;4.43;;;;;;;29.66;37.16;95167.47;5010296;28;20200;-68
2022/07/05 04:28:50;;;;;;;4.50;3.70;;;;;;;29.10;37.98;95166.47;5010259;28;20208;-68
2022/07/05 04:31:17;;;;;;;4.97;4.57;;;;;;;28.67;39.04;95177.13;5009527;28;20213;-68
2022/07/05 04:33:45;;;;;;;6.63;3.55;;;;;;;28.48;38.75;95167.75;5010158;28;20383;-68
2022/07/05 04:36:12;;;;;;;7.38;4.38;;;;;;;28.39;39.32;95156.47;5009773;28;20204;-68
2022/07/05 04:38:39;;;;;;;18.33;14.45;;;;;;;28.42;38.95;95166.59;5010368;28;20204;-68
2022/07/05 04:41:05;;;;;;;17.02;13.32;;;;;;;28.67;39.03;95164.06;5009723;28;20220;-65
2022/07/05 04:43:33;;;;;;;15.70;6.18;;;;;;;29.30;37.63;95160.91;5011056;28;20208;-66
2022/07/05 04:46:00;;;;;;;7.38;5.00;;;;;;;29.89;36.36;95158.94;5009923;28;20779;-66
2022/07/05 04:48:27;;;;;;;5.70;3.90;;;;;;;29.98;36.20;95165.75;5010131;28;20211;-66
2022/07/05 04:50:55;;;;;;;11.35;3.83;;;;;;;30.36;35.46;95156.34;5009921;28;20274;-66
2022/07/05 04:53:22;;;;;;;6.55;6.00;;;;;;;30.66;35.05;95166.09;5009252;28;20211;-66
2022/07/05 04:55:49;;;;;;;8.23;7.22;;;;;;;30.96;34.35;95164.41;5009043;28;20672;-67
2022/07/05 04:58:15;;;;;;;10.00;7.88;;;;;;;31.94;32.81;95161.84;5009931;28;20272;-67
2022/07/05 05:00:42;;;;;;;4.25;3.78;;;;;;;33.17;30.72;95159.34;5007573;28;20224;-67
2022/07/05 05:03:09;;;;;;;4.38;4.07;;;;;;;33.07;30.84;95162.31;5009585;28;20203;-67
2022/07/05 05:05:36;;;;;;;4.38;4.07;;;;;;;32.35;31.64;95170.16;5010294;28;20224;-67
2022/07/05 05:08:04;;;;;;;7.95;3.75;;;;;;;31.46;32.64;95173.59;5009591;28;20212;-68
2022/07/05 05:10:31;;;;;;;3.47;3.28;;;;;;;30.86;33.88;95171.72;5009490;28;20571;-67
2022/07/05 05:12:58;;;;;;;9.90;3.95;;;;;;;30.08;34.90;95176.91;5009265;28;20736;-67
2022/07/05 05:15:24;;;;;;;6.00;4.78;;;;;;;29.69;36.36;95180.25;5010756;28;20693;-67
2022/07/05 05:17:51;;;;;;;5.82;4.50;;;;;;;29.60;36.02;95172.56;5009072;28;20207;-67
2022/07/05 05:20:20;;;;;;;8.18;3.58;;;;;;;30.10;35.16;95167.91;5008966;28;20223;-66
2022/07/05 05:22:47;;;;;;;9.45;3.95;;;;;;;31.49;33.29;95168.00;5008620;28;20260;-67
2022/07/05 05:25:16;;;;;;;7.47;3.42;;;;;;;33.25;30.62;95171.59;5009243;28;20208;-67
2022/07/05 05:27:43;;;;;;;9.05;3.88;;;;;;;35.07;27.62;95174.84;5008740;28;20626;-66
2022/07/05 05:30:11;;;;;;;5.53;3.58;;;;;;;36.34;26.11;95166.78;5008963;28;20204;-66
2022/07/05 05:32:38;;;;;;;6.10;3.75;;;;;;;37.71;24.55;95166.31;5008588;28;20212;-67
2022/07/05 05:35:07;;;;;;;7.90;4.10;;;;;;;38.63;23.40;95159.28;5008345;28;20218;-68
2022/07/05 05:37:46;;;;;;;4.28;3.92;;;;;;;38.98;22.69;95159.47;5007033;28;20299;-68
2022/07/05 05:40:13;;;;;;;10.88;4.18;;;;;;;39.26;22.00;95163.41;5008447;28;20600;-67
2022/07/05 05:42:41;;;;;;;5.25;3.50;;;;;;;39.13;22.51;95157.22;5008568;28;20781;-67
2022/07/05 05:45:08;;;;;;;9.90;4.40;;;;;;;39.49;22.72;95160.84;5009075;28;20213;-67
2022/07/05 05:47:44;;;;;;;4.38;3.65;;;;;;;39.61;22.01;95153.66;5007956;28;20216;-67
2022/07/05 05:50:11;;;;;;;5.20;4.20;;;;;;;39.86;21.61;95155.31;5008108;28;20685;-68
2022/07/05 05:52:38;;;;;;;4.35;4.07;;;;;;;40.02;21.96;95157.31;5008322;28;20208;-66
2022/07/05 05:55:06;;;;;;;5.70;4.20;;;;;;;39.80;21.57;95157.06;5008035;28;20721;-66
2022/07/05 05:57:32;;;;;;;4.18;3.80;;;;;;;39.76;21.46;95164.69;5007878;28;20291;-66
2022/07/05 06:00:01;;;;;;;10.40;6.97;;;;;;;39.52;21.86;95171.03;5007819;28;20690;-66
2022/07/05 06:02:27;;;;;;;13.27;7.90;;;;;;;39.53;21.46;95167.31;5008735;28;20215;-68
2022/07/05 06:04:54;;;;;;;15.90;9.02;;;;;;;39.61;21.89;95169.63;5008734;28;20231;-68
2022/07/05 06:07:21;;;;;;;6.90;6.07;;;;;;;39.50;21.63;95162.47;5008582;28;20215;-68
2022/07/05 06:09:48;;;;;;;7.78;5.32;;;;;;;39.27;21.22;95167.69;5007978;28;20208;-68
2022/07/05 06:12:15;;;;;;;7.97;4.20;;;;;;;38.97;21.95;95171.13;5008099;28;20648;-67
2022/07/05 06:14:41;;;;;;;5.55;4.32;;;;;;;38.09;22.72;95170.69;5008078;28;20538;-67
2022/07/05 06:17:09;;;;;;;5.20;4.63;;;;;;;37.87;23.61;95169.44;5007856;28;20216;-67
2022/07/05 06:19:36;;;;;;;7.60;6.22;;;;;;;37.79;23.44;95171.34;5008038;28;20199;-67
2022/07/05 06:22:03;;;;;;;10.90;7.07;;;;;;;38.20;22.63;95164.66;5008509;28;20227;-67
2022/07/05 06:24:30;;;;;;;6.75;4.50;;;;;;;37.55;23.40;95168.66;5007956;28;20668;-68
2022/07/05 06:26:57;;;;;;;6.15;4.28;;;;;;;37.17;23.73;95176.63;5008562;28;20645;-67
2022/07/05 06:29:23;;;;;;;5.95;4.28;;;;;;;36.77;24.90;95168.91;5009046;28;20708;-68
2022/07/05 06:31:50;;;;;;;6.60;5.38;;;;;;;36.30;26.08;95176.16;5008493;28;20281;-67
2022/07/05 06:34:18;;;;;;;8.65;4.93;;;;;;;35.99;25.72;95179.44;5008152;28;20208;-67
2022/07/05 06:36:46;;;;;;;7.72;4.07;;;;;;;35.86;26.07;95173.34;5007898;28;20215;-68
2022/07/05 06:39:13;;;;;;;7.03;4.43;;;;;;;35.56;26.93;95170.28;5008040;28;20583;-68
2022/07/05 06:41:39;;;;;;;4.95;4.45;;;;;;;35.39;26.53;95168.00;5008358;28;20791;-68
2022/07/05 06:44:06;;;;;;;5.00;3.80;;;;;;;34.24;28.19;95173.22;5007911;28;20203;-69
2022/07/05 06:46:33;;;;;;;6.30;3.90;;;;;;;33.35;30.18;95167.69;5008432;28;20269;-67
2022/07/05 06:49:00;;;;;;;4.65;3.38;;;;;;;32.78;30.41;95171.13;5007731;28;20215;-66
2022/07/05 06:51:28;;;;;;;8.25;3.53;;;;;;;32.46;31.17;95171.50;5008036;28;20227;-67
2022/07/05 06:53:54;;;;;;;4.85;2.88;;;;;;;32.14;31.05;95156.91;5007479;28;20239;-68
2022/07/05 06:56:21;;;;;;;7.80;3.67;;;;;;;32.03;32.40;95154.72;5007703;28;20207;-66
2022/07/05 06:58:48;;;;;;;9.32;3.63;;;;;;;32.14;32.20;95154.28;5008576;28;20265;-66
2022/07/05 07:01:15;;;;;;;4.60;3.13;;;;;;;32.16;31.42;95154.91;5007765;28;20219;-67
2022/07/05 07:03:41;;;;;;;7.43;3.85;;;;;;;32.22;31.57;95148.13;5007979;28;20204;-67
2022/07/05 07:06:08;;;;;;;8.20;4.68;;;;;;;32.37;30.76;95152.38;5007780;28;20285;-68
2022/07/05 07:11:21;;;;;;;16.65;13.07;;;;;;;32.25;31.58;95153.00;5011097;28;20281;-67
2022/07/05 07:13:47;;;;;;;19.90;8.00;;;;;;;32.15;31.13;95150.66;5011396;28;20265;-66
2022/07/05 07:16:14;;;;;;;12.60;10.57;;;;;;;32.27;31.14;95157.09;5011993;28;20211;-68
2022/07/05 07:18:41;;;;;;;8.15;7.38;;;;;;;32.28;30.96;95152.66;5011682;28;20271;-67
2022/07/05 07:21:08;;;;;;;9.00;6.03;;;;;;;32.28;31.31;95158.72;5011589;28;20231;-67
2022/07/05 07:23:36;;;;;;;9.05;4.38;;;;;;;32.09;31.24;95160.06;5011355;28;20212;-68
2022/07/05 07:26:03;;;;;;;9.63;4.18;;;;;;;31.97;32.25;95165.94;5011010;28;20299;-67
2022/07/05 07:28:30;;;;;;;11.15;4.50;;;;;;;32.11;31.72;95165.16;5012243;28;20285;-67
2022/07/05 07:30:57;;;;;;;4.88;3.05;;;;;;;31.78;31.66;95159.41;5010767;28;20629;-67
2022/07/05 07:33:24;;;;;;;4.50;3.67;;;;;;;31.66;31.97;95153.78;5011269;28;20211;-68
2022/07/05 07:35:51;;;;;;;3.70;3.40;;;;;;;31.73;32.21;95154.66;5011109;28;20270;-67
2022/07/05 07:38:17;;;;;;;10.95;3.92;;;;;;;31.71;32.31;95148.78;5011019;28;20285;-67
2022/07/05 07:40:46;;;;;;;7.20;4.38;;;;;;;31.83;32.37;95148.34;5010433;28;20212;-69
2022/07/05 07:43:12;;;;;;;9.07;4.45;;;;;;;31.86;32.00;95142.75;5011185;28;20270;-67
2022/07/05 07:45:39;;;;;;;14.02;3.65;;;;;;;31.84;32.15;95144.72;5011208;28;20273;-68
2022/07/05 07:48:06;;;;;;;8.57;4.07;;;;;;;31.89;32.06;95147.63;5010294;28;20824;-68
2022/07/05 07:50:33;;;;;;;4.55;3.75;;;;;;;31.85;32.55;95147.19;5010632;28;20579;-66
2022/07/05 07:53:00;;;;;;;4.25;3.70;;;;;;;31.79;32.36;95142.63;5011107;28;20207;-66
2022/07/05 07:55:27;;;;;;;11.40;3.90;;;;;;;31.75;32.86;95151.88;5010898;28;20847;-66
2022/07/05 07:57:55;;;;;;;27.73;11.18;;;;;;;31.85;32.71;95146.38;5010445;28;20207;-66
2022/07/05 08:00:21;;;;;;;13.52;7.85;;;;;;;31.76;32.46;95146.44;5010593;28;20740;-65
2022/07/05 08:02:48;;;;;;;22.77;12.27;;;;;;;31.75;33.16;95146.63;5010845;28;20232;-69
2022/07/05 08:05:15;;;;;;;25.08;13.73;;;;;;;31.68;33.08;95146.50;5009784;28;20728;-67
2022/07/05 08:07:42;;;;;;;20.88;9.85;;;;;;;31.56;32.99;95155.78;5010025;28;21166;-66
2022/07/05 08:10:09;;;;;;;9.63;8.73;;;;;;;31.44;33.39;95144.06;5010117;28;20749;-66
2022/07/05 08:12:36;;;;;;;8.88;6.13;;;;;;;31.57;32.92;95149.53;5010413;28;20203;-67
2022/07/05 08:15:07;;;;;;;9.48;6.30;;;;;;;31.50;33.19;95134.66;5010728;28;20211;-67
2022/07/05 08:17:34;;;;;;;6.10;5.13;;;;;;;31.53;34.00;95145.63;5010115;28;20719;-66
2022/07/05 08:22:45;;;;;;;5.72;3.97;;;;;;;30.98;35.18;95143.25;5010143;28;20350;-68
2022/07/05 08:25:14;;;;;;;5.35;3.53;;;;;;;31.03;35.39;95140.91;5009929;28;20208;-68
2022/07/05 08:27:40;;;;;;;6.15;3.83;;;;;;;31.00;34.84;95136.00;5009763;28;20303;-66
2022/07/05 08:30:10;;;;;;;7.38;5.10;;;;;;;31.22;34.50;95135.22;5009925;28;20297;-67
2022/07/05 08:32:37;;;;;;;6.65;4.07;;;;;;;31.36;34.79;95133.66;5010471;28;20233;-66
2022/07/05 08:35:05;;;;;;;6.00;4.50;;;;;;;31.59;34.27;95120.47;5010007;28;20724;-67
2022/07/05 08:37:31;;;;;;;6.78;4.22;;;;;;;31.68;33.98;95127.28;5009420;28;20720;-67
2022/07/05 08:39:58;;;;;;;10.90;4.25;;;;;;;31.75;33.28;95123.78;5010277;28;20204;-68
2022/07/05 08:42:26;;;;;;;4.15;3.85;;;;;;;31.31;34.01;95122.84;5009793;28;20233;-68
2022/07/05 08:44:55;;;;;;;34.00;24.00;;;;;;;31.45;34.45;95125.50;5009962;28;20265;-68
2022/07/05 08:47:24;;;;;;;10.00;5.63;;;;;;;31.31;34.74;95121.03;5009319;28;20211;-67
2022/07/05 08:49:52;;;;;;;31.83;24.58;;;;;;;31.50;33.91;95116.28;5009541;28;20249;-67
2022/07/05 08:52:20;;;;;;;33.67;24.70;;;;;;;31.76;34.36;95119.34;5009846;28;20206;-68
2022/07/05 08:54:47;;;;;;;51.45;33.25;;;;;;;31.83;34.05;95119.44;5009683;28;20230;-68
2022/07/05 08:57:14;;;;;;;22.98;15.70;;;;;;;31.83;33.77;95114.19;5009217;28;20759;-67
2022/07/05 08:59:41;;;;;;;25.80;18.58;;;;;;;31.68;33.71;95098.38;5009329;28;20211;-68
2022/07/05 09:02:11;;;;;;;9.30;5.65;;;;;;;31.82;33.33;95102.03;5009177;28;20234;-68
2022/07/05 09:04:44;;;;;;;5.53;4.43;;;;;;;31.71;33.90;95098.03;5007932;28;20248;-67
2022/07/05 09:07:14;;;;;;;5.20;4.20;;;;;;;31.52;33.52;95101.97;5008213;28;20241;-67
2022/07/05 09:09:42;;;;;;;9.30;4.68;;;;;;;31.36;34.51;95099.50;5007209;28;20252;-66
2022/07/05 09:12:09;;;;;;;13.48;7.20;;;;;;;31.56;34.25;95100.63;5007693;28;20203;-67
2022/07/05 09:14:36;;;;;;;15.80;9.70;;;;;;;31.88;34.14;95088.19;5007812;28;21120;-67
2022/07/05 09:17:03;;;;;;;9.00;5.97;;;;;;;31.97;34.67;95087.88;5008014;28;20212;-67
2022/07/05 09:19:31;;;;;;;7.88;3.67;;;;;;;31.74;32.95;95082.72;5008716;28;20219;-67
2022/07/05 09:22:08;;;;;;;5.18;4.88;;;;;;;31.61;33.56;95081.72;5008528;28;20684;-67
2022/07/05 09:24:44;;;;;;;11.95;4.93;;;;;;;31.76;34.00;95080.75;5007356;28;20397;-67
2022/07/05 09:27:11;;;;;;;7.00;4.25;;;;;;;31.88;33.58;95080.31;5007518;28;20234;-70
2022/07/05 09:29:37;;;;;;;17.48;6.18;;;;;;;32.18;33.84;95078.44;5007164;28;20262;-68
2022/07/05 09:32:05;;;;;;;12.95;6.13;;;;;;;32.42;33.22;95072.91;5007556;28;20215;-67
2022/07/05 09:34:34;;;;;;;5.05;4.68;;;;;;;32.17;32.64;95069.78;5007401;28;20218;-67
2022/07/05 09:37:02;;;;;;;10.90;6.00;;;;;;;32.23;33.08;95065.59;5008037;28;20297;-68
2022/07/05 09:39:38;;;;;;;12.23;6.63;;;;;;;32.26;33.39;95062.59;5007331;28;20299;-69
2022/07/05 09:42:20;;;;;;;37.65;27.88;;;;;;;32.45;32.99;95062.81;5009640;28;20227;-67
2022/07/05 09:44:49;;;;;;;6.63;5.95;;;;;;;32.53;32.40;95061.09;5008818;28;20211;-67
2022/07/05 09:47:17;;;;;;;10.38;6.18;;;;;;;32.12;33.27;95065.06;5008590;28;20211;-67
2022/07/05 09:49:45;;;;;;;8.18;4.80;;;;;;;32.11;32.77;95058.16;5007436;28;20211;-68
2022/07/05 09:52:12;;;;;;;7.88;4.25;;;;;;;32.08;32.66;95050.63;5009064;28;20673;-68
2022/07/05 09:54:41;;;;;;;7.65;5.25;;;;;;;32.16;33.79;95052.38;5006017;28;20254;-67
2022/07/05 09:57:09;;;;;;;9.57;5.65;;;;;;;32.42;33.22;95042.16;5008162;28;20203;-68
2022/07/05 09:59:36;;;;;;;15.85;7.85;;;;;;;32.76;33.11;95035.44;5007709;28;20747;-69
2022/07/05 10:02:02;;;;;;;10.70;7.15;;;;;;;32.89;33.08;95040.84;5007556;28;20977;-67
2022/07/05 10:04:30;;;;;;;8.23;5.90;;;;;;;32.60;32.99;95030.41;5008384;28;20231;-68
2022/07/05 10:06:57;;;;;;;10.27;4.65;;;;;;;32.37;33.43;95036.66;5008399;28;20217;-69
2022/07/05 10:09:23;;;;;;;9.00;5.07;;;;;;;31.76;33.67;95035.25;5007896;28;20199;-68
2022/07/05 10:11:52;;;;;;;8.63;5.55;;;;;;;31.35;34.75;95035.66;5008580;28;22300;-66
2022/07/05 10:14:21;;;;;;;8.88;5.03;;;;;;;31.48;35.16;95027.16;5008750;28;20214;-67
2022/07/05 10:17:04;;;;;;;7.80;6.97;;;;;;;32.11;35.37;95025.78;5007540;28;20211;-67
2022/07/05 10:19:37;;;;;;;9.52;5.38;;;;;;;31.91;34.47;95024.75;5006492;28;20219;-68
2022/07/05 10:22:06;;;;;;;5.90;5.30;;;;;;;31.58;34.31;95032.16;5008016;28;20231;-69
2022/07/05 10:24:35;;;;;;;7.88;6.57;;;;;;;31.66;34.24;95016.31;5008219;28;21510;-68
2022/07/05 10:27:07;;;;;;;5.85;5.00;;;;;;;31.95;34.22;95018.91;5008362;28;20207;-66
2022/07/05 10:29:35;;;;;;;8.88;5.07;;;;;;;31.48;34.92;95008.75;5007985;28;20784;-67
2022/07/05 10:32:02;;;;;;;8.50;5.10;;;;;;;31.46;35.13;95010.75;5008119;28;20200;-65
2022/07/05 10:34:33;;;;;;;20.83;5.53;;;;;;;31.32;35.48;95007.13;5008350;28;20223;-65
2022/07/05 10:37:01;;;;;;;6.70;5.43;;;;;;;31.19;35.78;95020.06;5006691;28;20215;-66
2022/07/05 10:39:29;;;;;;;10.23;5.70;;;;;;;31.16;35.77;95009.13;5006611;28;20208;-66
2022/07/05 10:41:56;;;;;;;6.03;5.63;;;;;;;31.23;36.19;95010.00;5008123;28;20289;-66
2022/07/05 10:44:32;;;;;;;5.80;5.30;;;;;;;31.41;35.37;95003.44;5008477;28;20207;-66
2022/07/05 10:47:10;;;;;;;8.73;5.32;;;;;;;31.73;35.53;95002.28;5010100;28;20651;-66
2022/07/05 10:49:37;;;;;;;6.57;5.63;;;;;;;31.70;34.83;94997.38;5010229;28;20302;-66
2022/07/05 10:52:05;;;;;;;5.82;5.03;;;;;;;31.65;35.42;94997.09;5010366;28;20363;-67
2022/07/05 10:54:32;;;;;;;5.07;4.68;;;;;;;31.79;34.15;95000.72;5009772;28;20305;-67
2022/07/05 10:57:22;;;;;;;6.38;5.47;;;;;;;31.75;34.87;95000.28;5011133;28;20208;-67
2022/07/05 11:00:10;;;;;;;5.53;5.05;;;;;;;31.47;35.55;94996.63;5003982;28;20210;-66
2022/07/05 11:02:37;;;;;;;6.03;5.53;;;;;;;31.77;35.02;94987.78;5010154;28;20293;-67
2022/07/05 11:05:05;;;;;;;8.80;5.95;;;;;;;31.78;34.16;94983.34;5008367;28;20231;-66
2022/07/05 11:07:58;;;;;;;12.73;5.85;;;;;;;31.95;35.15;94989.19;5012488;28;20212;-66
2022/07/05 11:10:25;;;;;;;11.20;5.43;;;;;;;32.15;34.54;94973.66;5013947;28;20208;-67
2022/07/05 11:12:52;;;;;;;7.20;4.32;;;;;;;31.60;33.04;94980.25;5012085;28;20705;-67
2022/07/05 11:15:20;;;;;;;9.23;4.82;;;;;;;31.35;34.29;94977.91;5012946;28;20250;-66
2022/07/05 11:17:47;;;;;;;7.32;4.85;;;;;;;31.55;35.11;94974.72;5014452;28;20811;-66
2022/07/05 11:20:16;;;;;;;7.57;5.47;;;;;;;31.57;35.17;94973.53;5011321;28;20210;-68
2022/07/05 11:23:05;;;;;;;6.38;5.15;;;;;;;31.34;36.59;94970.19;5014142;28;20325;-67
2022/07/05 11:25:34;;;;;;;5.65;5.32;;;;;;;31.60;36.76;94965.28;5011698;28;20261;-66
2022/07/05 11:28:06;;;;;;;7.25;5.28;;;;;;;31.86;36.10;94961.41;5011086;28;20573;-66
2022/07/05 11:30:47;;;;;;;7.88;5.05;;;;;;;32.04;36.13;94952.09;5012344;28;20701;-68
2022/07/05 11:33:44;;;;;;;4.90;4.45;;;;;;;31.85;36.46;94959.78;5012675;28;20287;-66
2022/07/05 11:36:25;;;;;;;5.30;5.00;;;;;;;31.83;36.01;94949.44;5013178;28;20265;-67
2022/07/05 11:39:13;;;;;;;6.35;5.05;;;;;;;31.97;35.20;94958.28;5013576;28;20207;-68
2022/07/05 11:41:40;;;;;;;5.28;4.85;;;;;;;31.69;35.58;94948.44;5012067;28;20204;-66